Date,TemperatureHighF,TemperatureAvgF,TemperatureLowF,DewpointHighF,DewpointAvgF,DewpointLowF,HumidityHigh,HumidityAvg,HumidityLow,PressureMaxIn,PressureMinIn,WindSpeedMaxMPH,WindSpeedAvgMPH,GustSpeedMaxMPH,PrecipitationSumIn
2012-1-1,80,64,52,62,58,51,98,82,50,30.30,30.18,6,0,7,0.01
2012-1-2,67,61,57,65,50,37,94,69,44,30.26,30.11,15,5,21,0.02
2012-1-3,59,47,37,42,31,22,69,53,40,30.43,30.22,16,6,26,0.00
2012-1-4,56,42,32,32,24,15,87,52,22,30.47,30.33,7,1,9,0.00
2012-1-5,68,50,34,54,44,31,96,81,58,30.35,30.22,5,1,8,0.00
2012-1-6,73,58,46,60,53,45,97,84,57,30.26,30.14,6,0,7,0.01
2012-1-7,75,62,53,61,56,51,97,83,54,30.21,30.12,5,0,8,0.01
2012-1-8,80,63,52,59,54,50,97,78,44,30.26,30.17,5,1,8,0.01
2012-1-9,83,66,56,62,58,53,96,78,40,30.24,30.10,7,1,11,0.00
2012-1-10,84,68,58,64,59,55,96,76,43,30.12,29.95,9,1,15,0.01
2012-1-11,72,66,60,67,63,59,95,87,79,29.99,29.80,15,3,24,0.43
2012-1-12,77,68,58,65,61,57,97,81,62,30.00,29.86,8,2,13,0.01
2012-1-13,66,56,51,62,45,40,90,67,56,30.25,29.99,12,4,17,0.00
2012-3-12,88,79,71,65,62,59,75,56,43,30.29,30.18,11,3,17,0.82
2012-3-13,87,72,63,67,63,60,91,74,43,30.27,30.17,11,2,14,0.00
2012-3-14,82,71,61,67,63,59,95,78,50,30.26,30.15,9,2,13,0.00
2012-3-15,87,72,60,69,64,58,96,77,44,30.27,30.15,10,2,10,0.02
2012-3-16,86,74,64,67,65,61,95,75,46,30.25,30.14,8,2,12,0.00
2012-3-17,85,73,63,67,64,57,94,74,40,30.25,30.14,7,2,12,0.00
2012-3-18,88,72,60,67,63,58,95,74,36,30.26,30.14,9,2,14,0.00
2012-3-19,90,75,63,67,63,58,95,70,35,30.20,30.06,8,2,16,0.00
2012-3-20,89,76,67,68,64,59,86,69,37,30.12,30.01,11,2,16,0.00
2012-3-21,89,75,68,70,67,62,95,77,41,30.15,30.03,9,2,16,0.38
2012-3-22,89,76,70,71,69,68,96,81,50,30.17,30.06,10,2,13,0.00
2012-3-23,84,75,70,70,68,66,94,80,56,30.13,30.02,8,2,14,0.00
2012-3-24,83,74,68,70,68,65,96,81,56,30.04,29.92,12,2,19,0.04
2012-3-25,80,74,71,70,63,53,92,70,46,29.95,29.87,10,3,14,0.01
2012-3-26,81,72,59,64,59,50,93,66,36,30.05,29.91,8,2,11,0.00
2012-3-27,88,72,58,64,59,54,96,66,36,30.18,30.03,7,1,15,0.00
2012-3-28,89,75,67,67,64,56,87,69,35,30.20,30.06,9,2,11,0.00
2012-3-29,83,74,66,68,65,63,95,76,56,30.09,29.99,7,1,9,0.00
2012-3-30,89,74,64,69,64,60,97,74,42,30.07,29.99,10,2,14,0.01
2012-3-31,84,74,67,71,67,60,93,80,64,29.99,29.89,11,3,16,0.12
2012-4-1,82,75,70,70,68,64,88,78,64,29.97,29.89,8,2,10,0.00
2012-4-2,83,74,67,70,68,64,94,81,64,29.96,29.86,8,1,10,0.01
2012-4-3,85,75,64,72,68,62,97,81,58,30.00,29.91,7,1,9,0.01
2012-4-4,86,75,64,72,68,62,96,81,45,29.98,29.84,12,2,17,0.15
2012-4-5,82,74,66,70,68,65,97,82,66,29.88,29.76,8,2,13,0.14
2012-4-6,81,75,68,70,65,56,84,71,47,29.98,29.75,12,4,16,0.00
2012-4-7,85,72,59,60,56,52,86,60,36,30.16,29.96,10,3,15,0.00
2012-4-8,80,71,61,60,56,52,79,60,38,30.20,30.08,7,3,13,0.00
2012-4-9,84,71,58,65,60,55,93,70,41,30.12,30.01,9,1,11,0.00
2012-4-10,85,72,61,65,62,57,92,71,41,30.09,30.00,8,2,10,0.00
2012-4-11,82,75,71,67,64,61,81,70,53,30.09,30.00,8,2,11,0.00
2012-4-12,81,74,66,66,54,44,80,52,28,30.10,30.00,8,2,12,0.00
2012-4-13,84,73,64,68,64,58,91,73,50,30.13,30.04,9,2,12,0.00
2012-4-14,86,76,66,67,63,60,91,68,47,30.22,30.10,14,4,17,0.00
2012-4-15,89,76,68,68,63,58,82,64,37,30.21,30.14,13,3,16,0.00
2012-4-16,88,76,65,65,61,57,90,61,38,30.21,30.12,9,2,15,0.00
2012-4-17,90,77,68,66,62,56,83,64,33,30.18,30.04,10,2,16,0.00
2012-4-18,83,76,69,70,65,62,84,70,51,30.09,29.96,11,3,16,0.00
2012-4-19,83,75,70,72,70,68,94,84,65,30.00,29.88,10,2,17,0.21
2012-4-20,84,75,68,73,70,67,97,84,65,29.93,29.83,9,2,12,0.01
2012-4-21,82,71,63,69,67,61,95,85,60,29.88,29.62,14,2,20,0.40
2012-4-22,78,69,61,68,62,50,97,79,46,29.79,29.54,10,3,17,1.16
2012-4-23,72,69,65,52,50,46,60,50,40,29.93,29.78,13,5,18,0.00
2012-4-24,72,64,55,48,43,33,59,46,34,30.06,29.92,9,3,15,0.00
2012-4-25,78,68,51,58,52,46,92,61,41,30.14,30.03,8,1,11,0.00
2012-4-26,79,70,58,65,61,55,94,74,59,30.18,30.08,7,2,12,0.00
2012-4-27,85,73,61,68,63,60,96,74,44,30.14,30.06,8,1,11,0.01
2012-4-28,89,75,63,72,68,61,96,79,52,30.11,30.02,6,1,11,0.00
2012-4-29,92,79,68,73,68,60,96,72,38,30.11,30.02,8,2,10,0.00
2012-4-30,93,80,69,70,67,63,93,66,40,30.11,30.00,13,4,18,0.00
2012-5-1,94,81,71,70,68,65,91,68,40,30.09,29.96,12,4,16,0.00
2012-5-2,95,81,73,73,70,65,88,70,39,30.09,30.00,10,3,16,0.01
2012-5-3,93,80,73,72,70,66,90,74,43,30.11,30.03,9,3,16,0.00
2012-5-4,91,79,74,72,70,67,87,75,50,30.10,30.01,7,2,10,0.00
2012-5-5,84,78,70,73,71,67,92,80,68,30.04,29.94,8,2,10,0.00
2012-5-6,84,78,70,72,70,68,95,79,62,30.00,29.92,9,2,14,0.00
2012-5-7,85,77,70,72,70,67,95,78,62,29.94,29.87,8,2,11,0.00
2012-5-8,85,77,68,72,69,66,96,79,60,29.93,29.86,7,1,12,0.00
2012-5-9,86,79,73,75,72,70,92,80,68,29.91,29.80,10,3,16,0.01
2012-5-10,83,78,71,72,66,56,87,68,40,29.94,29.79,9,3,12,0.01
2012-5-11,95,79,63,70,63,51,94,62,24,30.12,29.92,9,2,13,0.00
2012-5-12,94,81,71,73,65,59,80,61,38,30.17,30.06,11,3,14,0.00
2012-5-13,87,78,73,72,67,63,87,70,49,30.14,30.02,8,2,14,0.00
2012-5-14,87,79,73,74,72,69,93,81,55,30.07,29.96,8,1,11,0.01
2012-5-15,87,79,70,73,71,68,95,78,59,30.03,29.95,9,1,13,0.00
2012-5-16,80,74,69,75,70,68,96,88,74,30.03,29.94,10,1,17,0.89
2012-5-17,86,78,69,72,70,67,96,78,57,29.95,29.87,8,2,13,0.01
2012-5-18,86,78,68,74,70,66,95,76,62,29.96,29.89,7,2,10,0.00
2012-5-19,89,78,69,72,69,66,92,73,49,30.01,29.90,14,3,15,0.00
2012-5-20,86,77,68,68,64,56,89,66,37,30.02,29.94,11,3,13,0.00
2012-5-21,86,78,64,66,63,56,94,64,38,30.02,29.94,9,2,10,0.00
2012-5-22,86,78,67,72,69,64,92,73,60,29.99,29.89,8,2,11,0.00
2012-5-23,89,80,69,73,70,66,96,74,47,29.94,29.84,8,2,10,0.00
2012-5-24,94,81,73,77,72,68,92,76,47,29.93,29.83,12,2,17,0.07
2012-5-25,92,82,72,77,73,67,95,75,50,30.05,29.91,9,2,12,0.01
2012-5-26,90,82,72,75,71,66,92,71,50,30.08,29.96,8,2,11,0.00
2012-5-27,88,81,72,78,73,68,92,78,62,30.00,29.85,12,2,29,0.47
2012-5-28,87,83,80,79,76,71,87,80,74,29.91,29.83,14,4,20,0.00
2012-5-29,83,79,72,76,74,70,94,85,78,29.96,29.86,11,3,18,1.07
2012-5-30,87,82,80,78,76,75,87,82,74,29.92,29.85,10,4,13,0.00
2012-5-31,87,82,79,77,75,72,87,79,68,29.94,29.87,9,2,12,0.00
2012-6-1,83,78,72,74,72,70,96,85,68,29.97,29.85,9,2,17,1.86
2012-6-2,88,81,74,76,73,70,94,77,62,30.00,29.89,9,2,17,0.00
2012-6-3,90,82,74,74,71,67,88,70,54,30.07,29.96,5,1,8,0.00
2012-6-4,88,82,75,77,74,69,85,78,69,30.01,29.86,8,2,12,0.00
2012-6-5,84,80,73,77,74,70,92,80,74,29.90,29.81,10,3,18,0.43
2012-6-6,84,78,74,77,73,68,93,83,64,29.93,29.84,16,2,18,0.03
2012-6-7,82,77,74,78,74,72,97,93,83,29.96,29.90,11,1,22,0.73
2012-6-8,84,76,71,78,74,70,97,92,78,29.99,29.89,6,1,14,1.01
2012-6-9,90,80,71,78,74,69,96,82,65,30.03,29.89,9,2,13,0.02
2012-6-10,97,84,76,80,76,72,95,78,52,30.14,29.98,9,2,11,0.00
2012-6-11,96,84,74,78,74,71,92,73,45,30.14,30.04,6,2,10,0.00
2012-6-12,90,83,75,78,74,70,86,75,60,30.09,29.96,8,2,11,0.00
2012-6-13,90,84,80,78,76,72,88,77,66,30.00,29.91,6,2,10,0.01
2012-6-14,90,83,76,78,74,68,88,75,58,30.01,29.91,9,2,12,0.00
2012-6-15,92,80,72,76,71,68,93,75,54,30.05,29.95,11,2,14,0.00
2012-6-16,95,83,72,72,68,60,91,64,33,30.06,29.97,10,3,14,0.00
2012-6-17,94,82,70,70,66,63,92,62,37,30.08,29.93,9,2,12,0.00
2012-6-18,96,83,71,72,67,61,84,60,33,30.05,29.97,8,2,12,0.00
2012-6-19,93,81,71,70,66,63,86,63,41,30.07,29.99,12,3,15,0.00
2012-6-20,92,79,73,77,72,66,93,78,57,30.06,29.95,10,3,18,0.13
2012-6-21,96,81,76,76,74,72,94,81,49,30.00,29.86,11,2,13,0.06
2012-6-22,93,81,75,77,75,72,95,82,55,29.92,29.84,11,2,16,0.04
2012-6-23,82,78,75,77,75,72,95,91,79,29.95,29.86,9,2,13,0.21
2012-6-24,79,77,75,78,76,73,97,96,92,29.91,29.66,24,7,34,9.88
2012-6-25,87,81,76,78,76,74,96,86,73,29.70,29.60,27,9,38,0.58
2012-6-26,86,81,77,78,76,74,94,86,76,29.65,29.55,27,8,32,0.31
2012-6-27,86,79,75,76,73,71,94,81,68,30.02,29.62,14,3,24,0.04
2012-6-28,92,82,73,74,68,63,87,65,41,30.10,30.01,6,1,9,0.00
2012-6-29,88,80,70,74,71,68,95,75,59,30.07,29.96,7,1,8,0.00
2012-6-30,88,82,78,74,72,71,82,73,60,30.03,29.94,7,2,9,0.00
2012-7-1,90,84,80,78,76,74,86,77,64,30.10,29.98,7,2,10,0.00
2012-7-2,91,83,76,78,76,74,94,78,62,30.12,30.02,7,1,9,0.00
2012-7-3,91,84,76,77,75,72,95,75,58,30.10,29.99,7,1,8,0.00
2012-7-4,93,84,75,77,74,71,94,75,50,30.10,30.02,7,1,10,0.00
2012-7-5,92,83,75,78,74,72,95,76,58,30.09,29.98,4,1,7,0.03
2012-7-6,92,83,76,77,75,73,94,77,59,30.06,29.99,7,1,9,0.00
2012-7-7,94,85,76,78,75,73,93,73,57,30.09,30.03,8,1,9,0.00
2012-7-8,95,85,76,79,75,71,92,73,56,30.11,30.01,11,2,13,0.00
2012-7-9,92,83,77,78,75,68,95,77,58,30.07,29.96,8,1,15,0.22
2012-7-10,92,81,75,79,74,71,93,79,56,30.06,29.97,8,1,15,0.04
2012-7-11,95,79,73,77,74,71,96,86,50,30.06,29.96,7,1,15,1.19
2012-7-12,93,80,73,77,74,72,97,85,52,30.04,29.95,6,1,12,0.17
2012-7-13,95,82,76,77,75,73,95,82,54,30.07,29.97,13,2,14,0.05
2012-7-14,98,84,76,77,74,71,95,75,45,30.10,30.01,10,2,11,0.21
2012-7-15,93,80,74,77,74,72,96,84,52,30.12,30.04,7,1,9,0.17
2012-7-16,90,81,74,77,75,71,97,82,62,30.09,29.96,8,1,12,0.44
2012-7-17,87,79,72,77,74,71,97,86,69,30.04,29.95,9,2,15,0.32
2012-7-18,84,76,71,78,74,69,97,93,79,30.14,29.99,10,1,17,2.04
2012-7-19,90,82,75,80,77,74,97,84,69,30.17,30.10,8,1,11,0.00
2012-7-20,94,84,76,79,77,74,96,79,59,30.13,30.05,7,1,9,0.00
2012-7-21,98,84,71,79,75,68,96,78,47,30.15,30.03,10,2,28,0.99
2012-7-22,97,80,74,80,74,70,95,85,51,30.16,30.03,14,1,23,0.65
2012-7-23,89,80,74,78,74,72,95,84,63,30.16,30.10,10,2,18,0.00
2012-7-24,89,82,76,80,75,73,93,82,67,30.14,30.04,8,2,13,0.13
2012-7-25,89,84,80,80,77,75,92,79,70,30.06,29.99,9,2,13,0.11
2012-7-26,90,84,77,78,76,75,93,79,65,30.05,29.97,10,2,11,0.00
2012-7-27,92,85,78,78,76,75,92,77,63,30.10,29.99,7,1,8,0.00
2012-7-28,92,84,76,78,76,74,95,78,62,30.12,30.03,6,1,10,0.00
2012-7-29,90,83,75,78,76,74,95,79,64,30.09,30.00,11,2,12,0.00
2012-7-30,89,82,75,78,75,72,94,81,67,30.07,29.99,8,1,15,0.92
2012-7-31,91,81,76,79,76,73,96,84,65,30.05,29.98,11,1,15,0.25
2012-8-1,91,84,76,78,76,74,96,79,62,30.03,29.94,8,2,13,0.01
2012-8-2,92,84,78,78,76,74,90,77,63,30.01,29.93,8,1,10,0.00
2012-8-3,93,83,75,78,74,71,96,78,55,30.04,29.94,8,1,12,0.00
2012-8-4,92,84,74,77,74,71,93,75,56,30.06,29.98,10,2,13,0.00
2012-8-5,97,83,74,81,76,71,96,81,57,30.13,30.00,8,1,15,1.16
2012-8-6,97,83,77,80,76,74,93,80,51,30.09,29.97,11,2,11,0.00
2012-8-7,94,84,77,80,76,74,92,80,61,30.05,29.97,8,1,10,0.00
2012-8-8,95,85,77,80,77,75,94,79,59,30.05,29.98,10,1,12,0.00
2012-8-9,98,86,76,79,76,73,93,75,53,30.04,29.94,7,1,10,0.00
2012-8-10,92,84,77,79,76,71,92,77,62,30.00,29.91,6,1,9,0.00
2012-8-11,92,84,76,78,76,71,92,77,56,30.02,29.92,7,1,10,0.00
2012-8-12,92,83,78,79,76,72,91,79,59,30.05,29.97,9,1,13,0.01
2012-8-13,94,85,78,78,76,75,95,76,57,30.08,30.01,8,1,9,0.00
2012-8-14,94,85,77,79,76,73,95,75,55,30.06,29.98,8,1,10,0.00
2012-8-15,96,85,77,79,76,73,89,74,54,30.05,29.97,6,1,10,0.00
2012-8-16,95,87,78,79,76,74,93,72,53,30.09,29.98,8,1,10,0.00
2012-8-17,88,81,75,81,76,72,97,85,72,30.06,29.94,8,1,12,1.47
2012-8-18,87,80,72,77,75,70,96,87,71,30.04,29.90,8,1,19,0.91
2012-8-19,92,83,76,79,77,74,97,83,64,30.00,29.92,13,2,17,0.16
2012-8-20,92,83,75,79,77,73,96,82,63,30.02,29.90,11,2,17,1.25
2012-8-21,92,80,73,80,76,72,97,88,63,30.10,29.95,14,2,18,1.58
2012-8-22,87,76,73,79,74,69,97,92,70,30.10,30.00,11,1,18,0.43
2012-8-23,93,81,74,76,73,68,97,78,47,30.12,30.02,9,1,13,0.00
2012-8-24,94,82,74,77,73,70,95,75,53,30.07,29.95,8,2,12,0.00
2012-8-25,95,80,74,77,73,71,94,81,53,30.03,29.94,11,2,17,0.17
2012-8-26,86,78,75,77,75,71,94,88,74,30.01,29.82,14,4,21,0.38
2012-8-27,87,79,76,80,76,74,96,92,78,29.84,29.71,14,4,19,1.02
2012-8-28,90,84,79,79,77,76,94,82,67,29.96,29.83,16,5,24,0.01
2012-8-29,90,83,78,79,76,74,92,81,62,29.98,29.90,17,3,23,0.00
2012-8-30,96,84,77,78,76,73,93,79,54,30.12,29.96,11,1,11,0.00
2012-8-31,95,84,77,80,77,73,96,79,57,30.18,30.08,11,1,11,0.00
2012-9-1,96,85,77,79,76,71,95,77,48,30.17,30.04,8,2,12,0.00
2012-9-2,94,84,75,76,73,64,93,73,40,30.09,29.99,6,1,11,0.00
2012-9-3,91,83,74,76,73,70,92,74,54,30.06,29.98,5,1,9,0.00
2012-9-4,93,82,74,77,74,72,97,77,53,30.02,29.95,6,1,10,0.00
2012-9-5,90,82,74,77,74,71,94,78,59,30.00,29.93,9,1,13,0.00
2012-9-6,90,81,75,78,75,72,94,83,65,30.03,29.95,7,2,17,0.46
2012-9-7,89,81,76,78,75,72,96,84,67,30.01,29.91,6,1,11,0.15
2012-9-8,90,82,75,78,76,73,95,81,64,29.97,29.87,15,3,18,0.00
2012-9-9,84,80,73,79,76,71,97,88,78,29.98,29.85,11,2,17,1.68
2012-9-10,91,82,74,78,75,70,98,82,60,30.03,29.93,7,1,8,2.39
2012-9-11,94,82,74,76,73,68,92,75,52,30.14,30.01,8,2,12,0.01
2012-9-12,94,81,73,76,70,67,86,70,48,30.13,30.05,10,2,14,0.00
2012-9-13,97,81,74,77,72,70,94,77,43,30.11,30.01,7,2,15,0.30
2012-9-14,94,82,74,78,73,71,91,76,53,30.08,29.97,8,2,13,0.09
2012-9-15,94,81,75,76,74,72,95,79,51,30.08,29.99,7,1,11,0.12
2012-9-16,91,79,75,76,74,70,94,84,57,30.06,29.97,7,1,12,0.07
2012-9-17,93,82,74,76,74,72,96,79,53,30.03,29.89,11,2,16,0.00
2012-9-18,85,78,75,79,75,73,95,90,80,29.95,29.87,12,2,19,0.58
2012-9-19,86,82,77,78,75,74,95,82,69,30.05,29.91,8,1,12,0.03
2012-9-20,89,81,76,78,75,70,97,83,63,30.04,29.95,6,1,8,0.01
2012-9-21,91,80,74,76,73,69,93,80,55,30.03,29.92,6,1,13,0.02
2012-9-22,92,79,72,75,72,70,96,80,54,30.04,29.95,6,1,10,0.00
2012-9-23,89,80,71,77,72,60,97,77,51,30.09,30.02,10,2,15,0.00
2012-9-24,87,78,72,65,58,54,74,52,33,30.13,30.03,8,2,11,0.00
2012-9-25,91,77,66,70,66,60,91,70,35,30.11,30.04,6,1,8,0.00
2012-9-26,92,83,73,74,71,68,96,68,48,30.12,30.05,6,1,9,0.00
2012-9-27,91,81,73,76,73,70,94,78,58,30.12,30.02,7,2,14,0.00
2012-9-28,89,80,73,76,74,71,96,82,62,30.07,29.94,8,1,12,0.40
2012-9-29,95,81,74,77,75,72,97,82,49,30.01,29.87,6,1,9,0.01
2012-9-30,89,81,75,77,75,73,97,83,65,29.91,29.79,7,1,12,0.00
2012-10-1,89,81,76,78,75,73,95,83,61,29.83,29.73,13,2,16,0.15
2012-10-2,87,81,76,78,75,73,95,82,69,30.03,29.79,8,1,17,0.06
2012-10-3,86,76,73,79,74,71,97,93,75,30.15,30.00,7,1,18,1.28
2012-10-4,95,80,72,80,75,70,96,85,56,30.18,30.09,8,1,18,0.04
2012-10-5,92,79,72,78,74,70,96,85,60,30.14,29.96,8,1,11,0.10
2012-10-6,91,80,74,79,75,70,97,85,64,30.01,29.88,9,1,14,0.01
2012-10-7,90,79,72,76,72,68,96,81,61,30.00,29.91,11,1,11,0.00
2012-10-8,88,78,72,77,74,70,97,86,68,30.04,29.94,6,0,8,0.00
2012-10-9,90,78,72,76,73,71,97,85,58,30.06,29.97,7,1,11,0.01
2012-10-10,84,77,70,74,69,66,92,78,57,30.12,30.04,11,2,17,0.00
2012-10-11,90,76,66,71,67,64,95,75,46,30.18,30.09,8,2,12,0.00
2012-10-12,88,76,67,70,66,62,90,71,45,30.20,30.10,10,2,14,0.00
2012-10-13,89,77,68,68,66,64,88,69,47,30.19,30.08,12,3,15,0.00
2012-10-14,95,79,68,74,70,66,92,74,44,30.14,29.99,8,2,13,0.00
2012-10-15,88,78,72,76,73,70,95,84,68,30.00,29.84,8,2,12,0.00
2012-10-16,87,76,67,72,67,60,96,73,53,29.89,29.81,12,2,14,0.00
2012-10-17,81,73,67,70,67,61,94,81,64,29.91,29.81,3,0,5,0.00
2012-10-18,88,76,67,74,70,65,97,85,61,29.90,29.81,7,1,9,0.06
2012-10-19,87,77,67,75,71,66,98,85,68,29.90,29.82,6,1,11,0.01
2012-10-20,82,76,63,74,62,54,87,64,46,29.99,29.86,9,3,14,0.00
2012-10-21,86,71,60,62,55,51,87,60,33,30.07,29.97,9,2,13,0.00
2012-10-22,90,75,65,65,62,58,82,65,43,30.10,29.99,11,3,14,0.00
2012-10-23,89,76,65,68,64,61,87,68,45,30.08,29.96,9,2,13,0.00
2012-10-24,90,77,68,71,67,64,93,73,50,30.03,29.90,12,3,17,0.03
2012-10-25,86,77,71,73,69,67,88,78,56,29.96,29.81,13,4,15,0.00
2012-10-26,83,77,73,73,70,65,89,78,67,29.84,29.67,19,6,22,0.00
2012-10-27,77,75,72,69,66,63,83,74,68,29.74,29.64,16,7,22,0.00
2012-10-28,76,70,65,69,61,53,83,73,58,29.84,29.72,14,5,18,0.00
2012-10-29,68,64,60,55,50,45,73,61,47,29.91,29.80,17,6,21,0.00
2012-10-30,68,64,60,53,47,44,64,55,44,29.97,29.86,13,5,19,0.00
2012-10-31,73,66,59,57,53,49,88,64,49,30.08,29.97,9,2,14,0.00
2012-11-1,76,68,60,67,62,56,94,82,62,30.06,29.97,7,1,9,0.00
2012-11-2,78,65,55,62,56,50,97,77,39,30.11,30.03,5,0,8,0.01
2012-11-3,80,68,57,70,64,56,97,88,71,30.15,30.07,5,1,8,0.02
2012-11-4,82,68,62,71,65,60,98,91,59,30.13,30.02,7,0,7,0.01
2012-11-5,76,68,62,68,63,57,97,85,52,30.03,29.94,7,1,12,0.01
2012-11-6,76,67,60,68,62,54,97,83,60,29.95,29.84,7,1,10,0.09
2012-11-7,67,63,59,59,53,46,82,69,52,30.03,29.89,13,4,23,0.00
2012-11-8,64,57,51,49,45,41,87,65,48,30.19,30.01,10,2,13,0.00
2012-11-9,77,60,46,52,46,38,93,66,27,30.28,30.17,8,1,10,0.00
2012-11-10,81,66,54,56,51,45,82,60,38,30.32,30.22,7,1,12,0.00
2012-11-11,86,70,56,64,59,53,91,71,44,30.30,30.21,10,2,15,0.00
2012-11-12,87,72,63,68,64,60,94,79,42,30.25,30.15,7,1,13,0.00
2012-11-13,80,71,66,70,66,64,95,87,67,30.20,30.11,7,1,9,0.01
2012-11-14,77,69,64,67,65,63,97,87,69,30.19,30.10,8,2,10,0.01
2012-11-15,70,66,60,64,62,58,93,88,77,30.16,30.09,7,2,11,0.00
2012-11-16,70,62,58,60,57,54,95,85,67,30.19,30.10,12,2,12,0.01
2012-11-17,75,65,59,66,60,55,92,84,67,30.17,30.08,10,4,16,0.00
2012-11-18,75,65,58,61,58,54,91,80,58,30.20,30.12,10,3,15,0.00
2012-11-19,66,60,53,59,55,51,95,84,74,30.19,30.09,10,3,13,0.01
2012-11-20,68,63,59,61,58,54,93,82,74,30.12,30.01,12,3,15,0.00
2012-11-21,71,63,56,59,57,54,96,80,63,30.11,30.02,11,2,13,0.00
2012-11-22,72,60,51,55,48,36,93,65,28,30.20,30.10,12,2,14,0.00
2012-11-23,69,56,41,51,44,37,93,68,37,30.24,30.11,7,1,11,0.00
2012-11-24,70,60,50,63,53,47,97,80,61,30.13,30.05,11,2,18,0.01
2012-11-25,68,54,40,47,38,27,91,60,23,30.20,30.10,8,1,11,0.00
2012-11-26,81,60,42,59,50,40,91,70,41,30.23,30.13,5,1,8,0.00
2012-11-27,81,68,56,67,61,49,96,80,54,30.19,30.10,10,1,15,0.00
2012-11-28,70,64,58,64,60,54,97,87,74,30.29,30.12,13,2,15,0.01
2012-11-29,82,66,54,61,56,51,91,71,43,30.29,30.19,9,2,13,0.00
2012-11-30,82,68,58,62,57,54,87,71,43,30.27,30.17,9,1,12,0.00
2012-12-1,83,68,58,64,59,54,91,74,47,30.27,30.17,9,1,12,0.00
2012-12-2,85,70,62,66,62,59,93,77,43,30.29,30.19,8,1,12,0.00
2012-12-3,84,70,64,66,63,59,92,79,52,30.29,30.19,7,1,9,0.00
2012-12-4,83,69,59,64,58,50,94,73,32,30.29,30.18,5,1,11,0.00
2012-12-5,83,68,59,65,60,56,90,77,47,30.21,30.05,8,1,9,0.00
2012-12-6,84,71,64,67,63,61,93,77,49,30.06,29.93,5,1,10,0.00
2012-12-7,81,68,62,67,63,61,96,87,61,30.03,29.94,6,1,8,0.01
2012-12-8,83,71,64,70,66,63,97,87,64,30.06,29.96,7,1,10,0.01
2012-12-9,75,67,63,69,65,62,97,94,81,30.11,30.02,5,1,7,0.01
2012-12-10,78,69,60,74,67,60,98,94,81,30.05,29.86,14,3,21,0.29
2012-12-11,82,73,68,74,70,67,98,92,76,30.04,29.89,9,1,13,0.01
2012-12-12,80,72,67,73,69,66,97,92,77,30.10,29.98,9,1,13,0.06
2012-12-13,68,64,56,66,59,52,96,86,73,30.22,30.08,12,4,19,0.00
2012-12-14,70,59,54,58,54,51,94,85,64,30.24,30.12,8,2,13,0.00
2012-12-15,82,64,54,66,60,52,97,88,56,30.17,30.06,6,1,8,0.01
2012-12-16,82,69,61,68,64,60,98,84,53,30.07,29.96,7,1,14,0.02
2012-12-17,80,70,62,70,67,61,97,89,66,30.00,29.89,11,2,16,0.01
2012-12-18,79,68,52,71,64,50,96,86,70,30.05,29.89,12,2,18,0.01
2012-12-19,81,61,48,56,50,39,96,73,23,30.12,30.04,7,1,9,0.02
2012-12-20,81,69,52,70,64,50,96,85,66,30.08,29.94,16,4,24,0.51
2012-12-21,69,58,55,65,45,38,90,61,50,30.23,29.99,15,6,22,0.01
2012-12-22,57,52,40,42,39,35,91,62,45,30.33,30.22,13,4,18,0.00
2012-12-23,69,52,38,47,39,32,94,65,26,30.27,30.15,4,0,9,0.00
2012-12-24,68,60,49,61,54,45,92,83,67,30.15,29.97,13,1,18,0.01
2012-12-25,75,66,58,64,59,56,95,79,64,30.03,29.88,10,2,16,0.01
2012-12-26,78,66,56,71,61,48,94,83,71,30.03,29.82,14,5,22,0.31
2012-12-27,58,52,44,50,46,42,94,81,71,30.13,30.02,9,2,13,0.00
2012-12-28,71,57,42,65,51,40,97,83,50,30.11,29.91,7,1,10,0.65
2012-12-29,73,66,53,71,62,46,97,87,69,30.20,29.86,17,5,21,0.16
2012-12-30,58,49,41,47,38,32,85,67,43,30.38,30.19,16,4,21,0.00
2012-12-31,76,57,43,58,50,40,94,78,52,30.36,30.20,5,1,9,0.00
2013-1-1,78,66,54,62,58,52,97,76,54,30.23,30.05,14,2,19,0.00